Geiger, Alabama
Current Conditions -  °F | °C
As of 7:22 AM on Sunday 23 Nov 2014 (Local Time) from KNMM Reporting Station
Haze Haze  
Wind Chill: 58°   Ceiling: 300
Heat Index: 58°   Visibility: 1.2mi
Dew Point: 57°   Wind: 7mph
Humidity: 97%   Direction: 120°ESE
Pressure: 29.78"   Gusts: NA
Location:  32.7568°N, 88.3127°W
Report Text: KNMM 231322Z AUTO 12006KT 1 1/4SM BR OVC003 14/14 A2978 RMK AO2 T01440139 $
Loading
Personal Weather Stations






























Interactive Weather Map New forecast layout! Learn more

10-Day Weather Forecast

Advertisements
Track Severe Weather on mobile